This is the latest recevied weather packets stored in our database for station/object OE6JVE-13. If no packets are shown the sender has not sent any weather packets the latest 10 day(s).
| Time | Temp. | Humidity | Pressure | Rain* | Wind** | Luminosity | Snow |
|---|---|---|---|---|---|---|---|
| 1777803369 | 22.78° C | 38% | 1012 hPa | 0 mm | - | - | - |
| 1777802775 | 22.78° C | 40% | 1012.1 hPa | 0 mm | - | - | - |
| 1777802116 | 22.22° C | 40% | 1012.2 hPa | 0 mm | - | - | - |
| 1777801522 | 21.67° C | 43% | 1012.3 hPa | 0 mm | - | - | - |
| 1777800928 | 21.11° C | 43% | 1012.4 hPa | 0 mm | - | - | - |
| 1777800334 | 21.11° C | 44% | 1012.4 hPa | 0 mm | - | - | - |
| 1777799741 | 20° C | 45% | 1012.5 hPa | 0 mm | - | - | - |
| 1777799146 | 20° C | 46% | 1012.6 hPa | 0 mm | - | - | - |
| 1777798551 | 19.44° C | 47% | 1012.7 hPa | 0 mm | - | - | - |
| 1777797958 | 19.44° C | 49% | 1012.7 hPa | 0 mm | - | - | - |
| 1777797364 | 18.89° C | 49% | 1012.7 hPa | 0 mm | - | - | - |
| 1777796770 | 18.33° C | 50% | 1012.8 hPa | 0 mm | - | - | - |
| 1777796176 | 17.78° C | 51% | 1012.9 hPa | 0 mm | - | - | - |
| 1777795517 | 17.22° C | 54% | 1013 hPa | 0 mm | - | - | - |
| 1777794921 | 17.22° C | 57% | 1013 hPa | 0 mm | - | - | - |
| 1777794328 | 16.67° C | 59% | 1013 hPa | 0 mm | - | - | - |
| 1777793733 | 15.56° C | 61% | 1012.9 hPa | 0 mm | - | - | - |
| 1777793140 | 15° C | 63% | 1012.9 hPa | 0 mm | - | - | - |
| 1777792546 | 14.44° C | 64% | 1013 hPa | 0 mm | - | - | - |
| 1777791952 | 14.44° C | 66% | 1012.9 hPa | 0 mm | - | - | - |
| 1777791358 | 13.89° C | 69% | 1012.9 hPa | 0 mm | - | - | - |
| 1777790759 | 12.22° C | 77% | 1013 hPa | 0 mm | - | - | - |
| 1777790162 | 11.67° C | 83% | 1012.9 hPa | 0 mm | - | - | - |
| 1777651264 | 18.89° C | 30% | 1018.5 hPa | 0 mm | - | - | - |
| 1777650671 | 20.56° C | 28% | 1018.5 hPa | 0 mm | - | - | - |
* Rain latest hour (hover to see other rain measurements)
** Current wind speed in m/s (hover to see current wind gust speed)